<?xml version="1.0" encoding="UTF-8" standalone="no" ?>
<gpx xmlns="http://www.topografix.com/GPX/1/1" xmlns:xsi="http://www.w3.org/2001/XMLSchema-instance" xsi:schemaLocation="http://www.topografix.com/GPX/1/1 http://www.topografix.com/GPX/1/1/gpx.xsd" version="1.1" creator="VisuGPX - https://www.visugpx.com">
  <metadata>
    <name>Andouquette </name>
    <desc><![CDATA[Boucle passant par le village de crespin ]]></desc>
  </metadata>
  <trk>
    <name><![CDATA[andouquette4 juil. 2015]]></name>
    <desc><![CDATA[comment ...]]></desc>
    <trkseg>
      <trkpt lat="44.03221" lon="2.3021">
        <ele>315</ele>
        <time>2015-07-04T11:57:51Z</time>
      </trkpt>
      <trkpt lat="44.03221" lon="2.3021">
        <ele>315</ele>
        <time>2015-07-04T11:57:52Z</time>
      </trkpt>
      <trkpt lat="44.03219" lon="2.30213">
        <ele>314</ele>
        <time>2015-07-04T11:58:47Z</time>
      </trkpt>
      <trkpt lat="44.03224" lon="2.30227">
        <ele>314</ele>
        <time>2015-07-04T11:59:02Z</time>
      </trkpt>
      <trkpt lat="44.03228" lon="2.3023">
        <ele>314</ele>
        <time>2015-07-04T11:59:08Z</time>
      </trkpt>
      <trkpt lat="44.0323" lon="2.30234">
        <ele>314</ele>
        <time>2015-07-04T11:59:13Z</time>
      </trkpt>
      <trkpt lat="44.03233" lon="2.30238">
        <ele>315</ele>
        <time>2015-07-04T11:59:17Z</time>
      </trkpt>
      <trkpt lat="44.03239" lon="2.30265">
        <ele>316</ele>
        <time>2015-07-04T11:59:34Z</time>
      </trkpt>
      <trkpt lat="44.03243" lon="2.30269">
        <ele>316</ele>
        <time>2015-07-04T11:59:39Z</time>
      </trkpt>
      <trkpt lat="44.03256" lon="2.3025">
        <ele>313</ele>
        <time>2015-07-04T11:59:58Z</time>
      </trkpt>
      <trkpt lat="44.03286" lon="2.30217">
        <ele>305</ele>
        <time>2015-07-04T12:00:31Z</time>
      </trkpt>
      <trkpt lat="44.03295" lon="2.30215">
        <ele>303</ele>
        <time>2015-07-04T12:00:47Z</time>
      </trkpt>
      <trkpt lat="44.03313" lon="2.30231">
        <ele>306</ele>
        <time>2015-07-04T12:01:18Z</time>
      </trkpt>
      <trkpt lat="44.03338" lon="2.30268">
        <ele>307</ele>
        <time>2015-07-04T12:01:52Z</time>
      </trkpt>
      <trkpt lat="44.03347" lon="2.30283">
        <ele>309</ele>
        <time>2015-07-04T12:02:06Z</time>
      </trkpt>
      <trkpt lat="44.03379" lon="2.30291">
        <ele>312</ele>
        <time>2015-07-04T12:02:37Z</time>
      </trkpt>
      <trkpt lat="44.03384" lon="2.30291">
        <ele>313</ele>
        <time>2015-07-04T12:02:45Z</time>
      </trkpt>
      <trkpt lat="44.03407" lon="2.30301">
        <ele>315</ele>
        <time>2015-07-04T12:03:14Z</time>
      </trkpt>
      <trkpt lat="44.03422" lon="2.30297">
        <ele>316</ele>
        <time>2015-07-04T12:03:25Z</time>
      </trkpt>
      <trkpt lat="44.03442" lon="2.30316">
        <ele>316</ele>
        <time>2015-07-04T12:03:42Z</time>
      </trkpt>
      <trkpt lat="44.03444" lon="2.30329">
        <ele>315</ele>
        <time>2015-07-04T12:03:51Z</time>
      </trkpt>
      <trkpt lat="44.03444" lon="2.30334">
        <ele>315</ele>
        <time>2015-07-04T12:03:55Z</time>
      </trkpt>
      <trkpt lat="44.03454" lon="2.30347">
        <ele>316</ele>
        <time>2015-07-04T12:04:15Z</time>
      </trkpt>
      <trkpt lat="44.03461" lon="2.30351">
        <ele>316</ele>
        <time>2015-07-04T12:04:26Z</time>
      </trkpt>
      <trkpt lat="44.03491" lon="2.30375">
        <ele>317</ele>
        <time>2015-07-04T12:05:00Z</time>
      </trkpt>
      <trkpt lat="44.03503" lon="2.30378">
        <ele>319</ele>
        <time>2015-07-04T12:05:09Z</time>
      </trkpt>
      <trkpt lat="44.03524" lon="2.30378">
        <ele>316</ele>
        <time>2015-07-04T12:05:50Z</time>
      </trkpt>
      <trkpt lat="44.03527" lon="2.30374">
        <ele>314</ele>
        <time>2015-07-04T12:06:23Z</time>
      </trkpt>
      <trkpt lat="44.03551" lon="2.30369">
        <ele>315</ele>
        <time>2015-07-04T12:06:54Z</time>
      </trkpt>
      <trkpt lat="44.03576" lon="2.30376">
        <ele>318</ele>
        <time>2015-07-04T12:07:25Z</time>
      </trkpt>
      <trkpt lat="44.03609" lon="2.30391">
        <ele>322</ele>
        <time>2015-07-04T12:07:56Z</time>
      </trkpt>
      <trkpt lat="44.03646" lon="2.30413">
        <ele>328</ele>
        <time>2015-07-04T12:08:30Z</time>
      </trkpt>
      <trkpt lat="44.03667" lon="2.30426">
        <ele>330</ele>
        <time>2015-07-04T12:08:48Z</time>
      </trkpt>
      <trkpt lat="44.03696" lon="2.30443">
        <ele>331</ele>
        <time>2015-07-04T12:09:18Z</time>
      </trkpt>
      <trkpt lat="44.03699" lon="2.30443">
        <ele>330</ele>
        <time>2015-07-04T12:09:25Z</time>
      </trkpt>
      <trkpt lat="44.03705" lon="2.30439">
        <ele>330</ele>
        <time>2015-07-04T12:09:34Z</time>
      </trkpt>
      <trkpt lat="44.03717" lon="2.30443">
        <ele>326</ele>
        <time>2015-07-04T12:09:51Z</time>
      </trkpt>
      <trkpt lat="44.0374" lon="2.30479">
        <ele>327</ele>
        <time>2015-07-04T12:10:22Z</time>
      </trkpt>
      <trkpt lat="44.0375" lon="2.30491">
        <ele>327</ele>
        <time>2015-07-04T12:10:43Z</time>
      </trkpt>
      <trkpt lat="44.0375" lon="2.30524">
        <ele>326</ele>
        <time>2015-07-04T12:11:18Z</time>
      </trkpt>
      <trkpt lat="44.03768" lon="2.30521">
        <ele>329</ele>
        <time>2015-07-04T12:11:52Z</time>
      </trkpt>
      <trkpt lat="44.03776" lon="2.30516">
        <ele>330</ele>
        <time>2015-07-04T12:12:00Z</time>
      </trkpt>
      <trkpt lat="44.03782" lon="2.30524">
        <ele>331</ele>
        <time>2015-07-04T12:12:18Z</time>
      </trkpt>
      <trkpt lat="44.03793" lon="2.30528">
        <ele>333</ele>
        <time>2015-07-04T12:12:29Z</time>
      </trkpt>
      <trkpt lat="44.03795" lon="2.30531">
        <ele>334</ele>
        <time>2015-07-04T12:12:33Z</time>
      </trkpt>
      <trkpt lat="44.03799" lon="2.30532">
        <ele>334</ele>
        <time>2015-07-04T12:12:36Z</time>
      </trkpt>
      <trkpt lat="44.03807" lon="2.30523">
        <ele>335</ele>
        <time>2015-07-04T12:12:51Z</time>
      </trkpt>
      <trkpt lat="44.03812" lon="2.30512">
        <ele>336</ele>
        <time>2015-07-04T12:13:09Z</time>
      </trkpt>
      <trkpt lat="44.03815" lon="2.3052">
        <ele>337</ele>
        <time>2015-07-04T12:13:45Z</time>
      </trkpt>
      <trkpt lat="44.03817" lon="2.30527">
        <ele>337</ele>
        <time>2015-07-04T12:14:00Z</time>
      </trkpt>
      <trkpt lat="44.0382" lon="2.30531">
        <ele>338</ele>
        <time>2015-07-04T12:14:06Z</time>
      </trkpt>
      <trkpt lat="44.03824" lon="2.30537">
        <ele>338</ele>
        <time>2015-07-04T12:14:17Z</time>
      </trkpt>
      <trkpt lat="44.03826" lon="2.30551">
        <ele>336</ele>
        <time>2015-07-04T12:14:34Z</time>
      </trkpt>
      <trkpt lat="44.03831" lon="2.3055">
        <ele>336</ele>
        <time>2015-07-04T12:14:43Z</time>
      </trkpt>
      <trkpt lat="44.03838" lon="2.30547">
        <ele>337</ele>
        <time>2015-07-04T12:15:06Z</time>
      </trkpt>
      <trkpt lat="44.03845" lon="2.3055">
        <ele>340</ele>
        <time>2015-07-04T12:15:27Z</time>
      </trkpt>
      <trkpt lat="44.03851" lon="2.30563">
        <ele>341</ele>
        <time>2015-07-04T12:15:43Z</time>
      </trkpt>
      <trkpt lat="44.03855" lon="2.30569">
        <ele>343</ele>
        <time>2015-07-04T12:15:49Z</time>
      </trkpt>
      <trkpt lat="44.0386" lon="2.30572">
        <ele>345</ele>
        <time>2015-07-04T12:16:06Z</time>
      </trkpt>
      <trkpt lat="44.03865" lon="2.30576">
        <ele>348</ele>
        <time>2015-07-04T12:16:19Z</time>
      </trkpt>
      <trkpt lat="44.03869" lon="2.30579">
        <ele>351</ele>
        <time>2015-07-04T12:16:27Z</time>
      </trkpt>
      <trkpt lat="44.0387" lon="2.30587">
        <ele>354</ele>
        <time>2015-07-04T12:16:54Z</time>
      </trkpt>
      <trkpt lat="44.03869" lon="2.30583">
        <ele>363</ele>
        <time>2015-07-04T12:20:13Z</time>
      </trkpt>
      <trkpt lat="44.0387" lon="2.30576">
        <ele>363</ele>
        <time>2015-07-04T12:20:18Z</time>
      </trkpt>
      <trkpt lat="44.03869" lon="2.30567">
        <ele>361</ele>
        <time>2015-07-04T12:20:32Z</time>
      </trkpt>
      <trkpt lat="44.03862" lon="2.30563">
        <ele>361</ele>
        <time>2015-07-04T12:20:53Z</time>
      </trkpt>
      <trkpt lat="44.03859" lon="2.30558">
        <ele>360</ele>
        <time>2015-07-04T12:21:24Z</time>
      </trkpt>
      <trkpt lat="44.03849" lon="2.30545">
        <ele>358</ele>
        <time>2015-07-04T12:21:47Z</time>
      </trkpt>
      <trkpt lat="44.03842" lon="2.30543">
        <ele>357</ele>
        <time>2015-07-04T12:21:59Z</time>
      </trkpt>
      <trkpt lat="44.0384" lon="2.30546">
        <ele>357</ele>
        <time>2015-07-04T12:22:07Z</time>
      </trkpt>
      <trkpt lat="44.03836" lon="2.30554">
        <ele>356</ele>
        <time>2015-07-04T12:22:18Z</time>
      </trkpt>
      <trkpt lat="44.03832" lon="2.30548">
        <ele>355</ele>
        <time>2015-07-04T12:22:31Z</time>
      </trkpt>
      <trkpt lat="44.03829" lon="2.30538">
        <ele>353</ele>
        <time>2015-07-04T12:22:49Z</time>
      </trkpt>
      <trkpt lat="44.03829" lon="2.30525">
        <ele>351</ele>
        <time>2015-07-04T12:22:56Z</time>
      </trkpt>
      <trkpt lat="44.03832" lon="2.3052">
        <ele>351</ele>
        <time>2015-07-04T12:23:03Z</time>
      </trkpt>
      <trkpt lat="44.03836" lon="2.30511">
        <ele>347</ele>
        <time>2015-07-04T12:24:28Z</time>
      </trkpt>
      <trkpt lat="44.03841" lon="2.30514">
        <ele>347</ele>
        <time>2015-07-04T12:25:03Z</time>
      </trkpt>
      <trkpt lat="44.03864" lon="2.30515">
        <ele>351</ele>
        <time>2015-07-04T12:25:33Z</time>
      </trkpt>
      <trkpt lat="44.03867" lon="2.3051">
        <ele>351</ele>
        <time>2015-07-04T12:26:11Z</time>
      </trkpt>
      <trkpt lat="44.03879" lon="2.30523">
        <ele>349</ele>
        <time>2015-07-04T12:26:41Z</time>
      </trkpt>
      <trkpt lat="44.03883" lon="2.30522">
        <ele>351</ele>
        <time>2015-07-04T12:27:31Z</time>
      </trkpt>
      <trkpt lat="44.03885" lon="2.30527">
        <ele>352</ele>
        <time>2015-07-04T12:28:01Z</time>
      </trkpt>
      <trkpt lat="44.03889" lon="2.30534">
        <ele>352</ele>
        <time>2015-07-04T12:28:09Z</time>
      </trkpt>
      <trkpt lat="44.03891" lon="2.30557">
        <ele>354</ele>
        <time>2015-07-04T12:28:25Z</time>
      </trkpt>
      <trkpt lat="44.03888" lon="2.30576">
        <ele>354</ele>
        <time>2015-07-04T12:28:51Z</time>
      </trkpt>
      <trkpt lat="44.0388" lon="2.30586">
        <ele>354</ele>
        <time>2015-07-04T12:28:57Z</time>
      </trkpt>
      <trkpt lat="44.03878" lon="2.30591">
        <ele>353</ele>
        <time>2015-07-04T12:29:01Z</time>
      </trkpt>
      <trkpt lat="44.03878" lon="2.30604">
        <ele>354</ele>
        <time>2015-07-04T12:29:56Z</time>
      </trkpt>
      <trkpt lat="44.03882" lon="2.30618">
        <ele>354</ele>
        <time>2015-07-04T12:30:15Z</time>
      </trkpt>
      <trkpt lat="44.03884" lon="2.30623">
        <ele>356</ele>
        <time>2015-07-04T12:30:24Z</time>
      </trkpt>
      <trkpt lat="44.03884" lon="2.30632">
        <ele>356</ele>
        <time>2015-07-04T12:30:29Z</time>
      </trkpt>
      <trkpt lat="44.03883" lon="2.30642">
        <ele>357</ele>
        <time>2015-07-04T12:31:04Z</time>
      </trkpt>
      <trkpt lat="44.03877" lon="2.30659">
        <ele>358</ele>
        <time>2015-07-04T12:31:21Z</time>
      </trkpt>
      <trkpt lat="44.03881" lon="2.30678">
        <ele>359</ele>
        <time>2015-07-04T12:31:48Z</time>
      </trkpt>
      <trkpt lat="44.03871" lon="2.30695">
        <ele>360</ele>
        <time>2015-07-04T12:32:05Z</time>
      </trkpt>
      <trkpt lat="44.03861" lon="2.30705">
        <ele>361</ele>
        <time>2015-07-04T12:32:21Z</time>
      </trkpt>
      <trkpt lat="44.03858" lon="2.30705">
        <ele>361</ele>
        <time>2015-07-04T12:32:28Z</time>
      </trkpt>
      <trkpt lat="44.03861" lon="2.30713">
        <ele>361</ele>
        <time>2015-07-04T12:32:40Z</time>
      </trkpt>
      <trkpt lat="44.03864" lon="2.30719">
        <ele>361</ele>
        <time>2015-07-04T12:32:49Z</time>
      </trkpt>
      <trkpt lat="44.03866" lon="2.3074">
        <ele>360</ele>
        <time>2015-07-04T12:33:03Z</time>
      </trkpt>
      <trkpt lat="44.03873" lon="2.30754">
        <ele>365</ele>
        <time>2015-07-04T12:33:31Z</time>
      </trkpt>
      <trkpt lat="44.03881" lon="2.30767">
        <ele>369</ele>
        <time>2015-07-04T12:33:48Z</time>
      </trkpt>
      <trkpt lat="44.03902" lon="2.30781">
        <ele>369</ele>
        <time>2015-07-04T12:34:18Z</time>
      </trkpt>
      <trkpt lat="44.03924" lon="2.30776">
        <ele>369</ele>
        <time>2015-07-04T12:34:46Z</time>
      </trkpt>
      <trkpt lat="44.03948" lon="2.30749">
        <ele>372</ele>
        <time>2015-07-04T12:35:18Z</time>
      </trkpt>
      <trkpt lat="44.03952" lon="2.30744">
        <ele>373</ele>
        <time>2015-07-04T12:35:28Z</time>
      </trkpt>
      <trkpt lat="44.03964" lon="2.30739">
        <ele>379</ele>
        <time>2015-07-04T12:36:10Z</time>
      </trkpt>
      <trkpt lat="44.03964" lon="2.30744">
        <ele>379</ele>
        <time>2015-07-04T12:36:24Z</time>
      </trkpt>
      <trkpt lat="44.0396" lon="2.30747">
        <ele>376</ele>
        <time>2015-07-04T12:37:54Z</time>
      </trkpt>
      <trkpt lat="44.03955" lon="2.30745">
        <ele>376</ele>
        <time>2015-07-04T12:38:09Z</time>
      </trkpt>
      <trkpt lat="44.03948" lon="2.30752">
        <ele>376</ele>
        <time>2015-07-04T12:38:45Z</time>
      </trkpt>
      <trkpt lat="44.03952" lon="2.30767">
        <ele>375</ele>
        <time>2015-07-04T12:39:15Z</time>
      </trkpt>
      <trkpt lat="44.03961" lon="2.30772">
        <ele>375</ele>
        <time>2015-07-04T12:39:58Z</time>
      </trkpt>
      <trkpt lat="44.03976" lon="2.30783">
        <ele>376</ele>
        <time>2015-07-04T12:40:26Z</time>
      </trkpt>
      <trkpt lat="44.03982" lon="2.30798">
        <ele>378</ele>
        <time>2015-07-04T12:40:44Z</time>
      </trkpt>
      <trkpt lat="44.04005" lon="2.30805">
        <ele>383</ele>
        <time>2015-07-04T12:41:17Z</time>
      </trkpt>
      <trkpt lat="44.04009" lon="2.30805">
        <ele>383</ele>
        <time>2015-07-04T12:41:22Z</time>
      </trkpt>
      <trkpt lat="44.04027" lon="2.30777">
        <ele>387</ele>
        <time>2015-07-04T12:41:54Z</time>
      </trkpt>
      <trkpt lat="44.04034" lon="2.30777">
        <ele>388</ele>
        <time>2015-07-04T12:42:24Z</time>
      </trkpt>
      <trkpt lat="44.04038" lon="2.30775">
        <ele>388</ele>
        <time>2015-07-04T12:42:29Z</time>
      </trkpt>
      <trkpt lat="44.04043" lon="2.30777">
        <ele>390</ele>
        <time>2015-07-04T12:42:34Z</time>
      </trkpt>
      <trkpt lat="44.04047" lon="2.30784">
        <ele>392</ele>
        <time>2015-07-04T12:43:08Z</time>
      </trkpt>
      <trkpt lat="44.04049" lon="2.30789">
        <ele>392</ele>
        <time>2015-07-04T12:43:16Z</time>
      </trkpt>
      <trkpt lat="44.04053" lon="2.30791">
        <ele>394</ele>
        <time>2015-07-04T12:44:04Z</time>
      </trkpt>
      <trkpt lat="44.04057" lon="2.30789">
        <ele>394</ele>
        <time>2015-07-04T12:44:14Z</time>
      </trkpt>
      <trkpt lat="44.04074" lon="2.3078">
        <ele>397</ele>
        <time>2015-07-04T12:44:42Z</time>
      </trkpt>
      <trkpt lat="44.04079" lon="2.3078">
        <ele>399</ele>
        <time>2015-07-04T12:44:53Z</time>
      </trkpt>
      <trkpt lat="44.04091" lon="2.30792">
        <ele>402</ele>
        <time>2015-07-04T12:45:25Z</time>
      </trkpt>
      <trkpt lat="44.04097" lon="2.30806">
        <ele>404</ele>
        <time>2015-07-04T12:45:46Z</time>
      </trkpt>
      <trkpt lat="44.04111" lon="2.30817">
        <ele>404</ele>
        <time>2015-07-04T12:46:20Z</time>
      </trkpt>
      <trkpt lat="44.04115" lon="2.30822">
        <ele>405</ele>
        <time>2015-07-04T12:46:29Z</time>
      </trkpt>
      <trkpt lat="44.04121" lon="2.30828">
        <ele>410</ele>
        <time>2015-07-04T12:46:52Z</time>
      </trkpt>
      <trkpt lat="44.04143" lon="2.30853">
        <ele>410</ele>
        <time>2015-07-04T12:47:16Z</time>
      </trkpt>
      <trkpt lat="44.04149" lon="2.30852">
        <ele>409</ele>
        <time>2015-07-04T12:47:23Z</time>
      </trkpt>
      <trkpt lat="44.04169" lon="2.30833">
        <ele>405</ele>
        <time>2015-07-04T12:47:51Z</time>
      </trkpt>
      <trkpt lat="44.04175" lon="2.30831">
        <ele>405</ele>
        <time>2015-07-04T12:48:45Z</time>
      </trkpt>
      <trkpt lat="44.04174" lon="2.30819">
        <ele>405</ele>
        <time>2015-07-04T12:48:54Z</time>
      </trkpt>
      <trkpt lat="44.04179" lon="2.30811">
        <ele>408</ele>
        <time>2015-07-04T12:49:07Z</time>
      </trkpt>
      <trkpt lat="44.04185" lon="2.30802">
        <ele>409</ele>
        <time>2015-07-04T12:49:13Z</time>
      </trkpt>
      <trkpt lat="44.0419" lon="2.30797">
        <ele>410</ele>
        <time>2015-07-04T12:49:41Z</time>
      </trkpt>
      <trkpt lat="44.04197" lon="2.30793">
        <ele>409</ele>
        <time>2015-07-04T12:50:01Z</time>
      </trkpt>
      <trkpt lat="44.04217" lon="2.30809">
        <ele>400</ele>
        <time>2015-07-04T12:50:30Z</time>
      </trkpt>
      <trkpt lat="44.04223" lon="2.30828">
        <ele>401</ele>
        <time>2015-07-04T12:50:55Z</time>
      </trkpt>
      <trkpt lat="44.0423" lon="2.30845">
        <ele>405</ele>
        <time>2015-07-04T12:51:14Z</time>
      </trkpt>
      <trkpt lat="44.04235" lon="2.30859">
        <ele>410</ele>
        <time>2015-07-04T12:51:35Z</time>
      </trkpt>
      <trkpt lat="44.04247" lon="2.30867">
        <ele>411</ele>
        <time>2015-07-04T12:51:45Z</time>
      </trkpt>
      <trkpt lat="44.04256" lon="2.30878">
        <ele>415</ele>
        <time>2015-07-04T12:52:06Z</time>
      </trkpt>
      <trkpt lat="44.04274" lon="2.30877">
        <ele>413</ele>
        <time>2015-07-04T12:52:36Z</time>
      </trkpt>
      <trkpt lat="44.0431" lon="2.30861">
        <ele>408</ele>
        <time>2015-07-04T12:53:09Z</time>
      </trkpt>
      <trkpt lat="44.04335" lon="2.30836">
        <ele>407</ele>
        <time>2015-07-04T12:53:40Z</time>
      </trkpt>
      <trkpt lat="44.04341" lon="2.30832">
        <ele>406</ele>
        <time>2015-07-04T12:53:55Z</time>
      </trkpt>
      <trkpt lat="44.04347" lon="2.30836">
        <ele>407</ele>
        <time>2015-07-04T12:54:05Z</time>
      </trkpt>
      <trkpt lat="44.04353" lon="2.30847">
        <ele>407</ele>
        <time>2015-07-04T12:54:16Z</time>
      </trkpt>
      <trkpt lat="44.04381" lon="2.30811">
        <ele>411</ele>
        <time>2015-07-04T12:54:49Z</time>
      </trkpt>
      <trkpt lat="44.04406" lon="2.30778">
        <ele>414</ele>
        <time>2015-07-04T12:55:24Z</time>
      </trkpt>
      <trkpt lat="44.04412" lon="2.30758">
        <ele>417</ele>
        <time>2015-07-04T12:55:40Z</time>
      </trkpt>
      <trkpt lat="44.04413" lon="2.30764">
        <ele>420</ele>
        <time>2015-07-04T12:56:10Z</time>
      </trkpt>
      <trkpt lat="44.04412" lon="2.30772">
        <ele>421</ele>
        <time>2015-07-04T12:56:20Z</time>
      </trkpt>
      <trkpt lat="44.04415" lon="2.30783">
        <ele>423</ele>
        <time>2015-07-04T12:56:49Z</time>
      </trkpt>
      <trkpt lat="44.04417" lon="2.30788">
        <ele>426</ele>
        <time>2015-07-04T12:56:52Z</time>
      </trkpt>
      <trkpt lat="44.04435" lon="2.3081">
        <ele>429</ele>
        <time>2015-07-04T12:57:10Z</time>
      </trkpt>
      <trkpt lat="44.04433" lon="2.30805">
        <ele>429</ele>
        <time>2015-07-04T12:58:07Z</time>
      </trkpt>
      <trkpt lat="44.0443" lon="2.30813">
        <ele>429</ele>
        <time>2015-07-04T12:58:42Z</time>
      </trkpt>
      <trkpt lat="44.04438" lon="2.30812">
        <ele>428</ele>
        <time>2015-07-04T12:59:51Z</time>
      </trkpt>
      <trkpt lat="44.04443" lon="2.30813">
        <ele>428</ele>
        <time>2015-07-04T13:00:55Z</time>
      </trkpt>
      <trkpt lat="44.04444" lon="2.30809">
        <ele>428</ele>
        <time>2015-07-04T13:01:03Z</time>
      </trkpt>
      <trkpt lat="44.04442" lon="2.30804">
        <ele>428</ele>
        <time>2015-07-04T13:01:17Z</time>
      </trkpt>
      <trkpt lat="44.0444" lon="2.308">
        <ele>429</ele>
        <time>2015-07-04T13:01:45Z</time>
      </trkpt>
      <trkpt lat="44.04446" lon="2.30791">
        <ele>430</ele>
        <time>2015-07-04T13:05:36Z</time>
      </trkpt>
      <trkpt lat="44.04455" lon="2.30784">
        <ele>432</ele>
        <time>2015-07-04T13:06:01Z</time>
      </trkpt>
      <trkpt lat="44.04467" lon="2.30791">
        <ele>436</ele>
        <time>2015-07-04T13:06:29Z</time>
      </trkpt>
      <trkpt lat="44.04471" lon="2.30801">
        <ele>438</ele>
        <time>2015-07-04T13:06:52Z</time>
      </trkpt>
      <trkpt lat="44.04476" lon="2.308">
        <ele>442</ele>
        <time>2015-07-04T13:07:01Z</time>
      </trkpt>
      <trkpt lat="44.0448" lon="2.30797">
        <ele>442</ele>
        <time>2015-07-04T13:07:06Z</time>
      </trkpt>
      <trkpt lat="44.04499" lon="2.30787">
        <ele>447</ele>
        <time>2015-07-04T13:07:34Z</time>
      </trkpt>
      <trkpt lat="44.04514" lon="2.30772">
        <ele>451</ele>
        <time>2015-07-04T13:08:01Z</time>
      </trkpt>
      <trkpt lat="44.04523" lon="2.3077">
        <ele>454</ele>
        <time>2015-07-04T13:08:18Z</time>
      </trkpt>
      <trkpt lat="44.04538" lon="2.30761">
        <ele>457</ele>
        <time>2015-07-04T13:08:48Z</time>
      </trkpt>
      <trkpt lat="44.04568" lon="2.30744">
        <ele>465</ele>
        <time>2015-07-04T13:09:30Z</time>
      </trkpt>
      <trkpt lat="44.04573" lon="2.30737">
        <ele>469</ele>
        <time>2015-07-04T13:10:00Z</time>
      </trkpt>
      <trkpt lat="44.04589" lon="2.30703">
        <ele>473</ele>
        <time>2015-07-04T13:10:31Z</time>
      </trkpt>
      <trkpt lat="44.04608" lon="2.30667">
        <ele>476</ele>
        <time>2015-07-04T13:11:02Z</time>
      </trkpt>
      <trkpt lat="44.04625" lon="2.30631">
        <ele>479</ele>
        <time>2015-07-04T13:11:32Z</time>
      </trkpt>
      <trkpt lat="44.04636" lon="2.3062">
        <ele>480</ele>
        <time>2015-07-04T13:11:52Z</time>
      </trkpt>
      <trkpt lat="44.04663" lon="2.30612">
        <ele>484</ele>
        <time>2015-07-04T13:12:24Z</time>
      </trkpt>
      <trkpt lat="44.04681" lon="2.306">
        <ele>485</ele>
        <time>2015-07-04T13:12:53Z</time>
      </trkpt>
      <trkpt lat="44.04703" lon="2.30578">
        <ele>489</ele>
        <time>2015-07-04T13:13:25Z</time>
      </trkpt>
      <trkpt lat="44.04726" lon="2.30547">
        <ele>491</ele>
        <time>2015-07-04T13:13:55Z</time>
      </trkpt>
      <trkpt lat="44.04751" lon="2.30518">
        <ele>494</ele>
        <time>2015-07-04T13:14:27Z</time>
      </trkpt>
      <trkpt lat="44.04752" lon="2.30514">
        <ele>494</ele>
        <time>2015-07-04T13:14:30Z</time>
      </trkpt>
      <trkpt lat="44.04755" lon="2.30511">
        <ele>495</ele>
        <time>2015-07-04T13:14:35Z</time>
      </trkpt>
      <trkpt lat="44.04784" lon="2.30481">
        <ele>497</ele>
        <time>2015-07-04T13:15:06Z</time>
      </trkpt>
      <trkpt lat="44.04808" lon="2.30452">
        <ele>499</ele>
        <time>2015-07-04T13:15:37Z</time>
      </trkpt>
      <trkpt lat="44.04833" lon="2.3042">
        <ele>502</ele>
        <time>2015-07-04T13:16:08Z</time>
      </trkpt>
      <trkpt lat="44.04858" lon="2.30389">
        <ele>506</ele>
        <time>2015-07-04T13:16:38Z</time>
      </trkpt>
      <trkpt lat="44.04883" lon="2.30359">
        <ele>508</ele>
        <time>2015-07-04T13:17:10Z</time>
      </trkpt>
      <trkpt lat="44.04913" lon="2.30326">
        <ele>509</ele>
        <time>2015-07-04T13:17:40Z</time>
      </trkpt>
      <trkpt lat="44.04941" lon="2.30299">
        <ele>511</ele>
        <time>2015-07-04T13:18:11Z</time>
      </trkpt>
      <trkpt lat="44.04968" lon="2.30273">
        <ele>514</ele>
        <time>2015-07-04T13:18:42Z</time>
      </trkpt>
      <trkpt lat="44.04995" lon="2.30238">
        <ele>514</ele>
        <time>2015-07-04T13:19:14Z</time>
      </trkpt>
      <trkpt lat="44.05025" lon="2.3021">
        <ele>516</ele>
        <time>2015-07-04T13:19:44Z</time>
      </trkpt>
      <trkpt lat="44.05052" lon="2.30171">
        <ele>517</ele>
        <time>2015-07-04T13:20:16Z</time>
      </trkpt>
      <trkpt lat="44.05072" lon="2.30123">
        <ele>517</ele>
        <time>2015-07-04T13:20:47Z</time>
      </trkpt>
      <trkpt lat="44.0509" lon="2.30083">
        <ele>516</ele>
        <time>2015-07-04T13:21:18Z</time>
      </trkpt>
      <trkpt lat="44.05104" lon="2.3003">
        <ele>516</ele>
        <time>2015-07-04T13:21:50Z</time>
      </trkpt>
      <trkpt lat="44.05107" lon="2.30005">
        <ele>517</ele>
        <time>2015-07-04T13:22:07Z</time>
      </trkpt>
      <trkpt lat="44.05093" lon="2.29952">
        <ele>518</ele>
        <time>2015-07-04T13:22:40Z</time>
      </trkpt>
      <trkpt lat="44.05086" lon="2.29897">
        <ele>517</ele>
        <time>2015-07-04T13:23:12Z</time>
      </trkpt>
      <trkpt lat="44.05086" lon="2.29891">
        <ele>517</ele>
        <time>2015-07-04T13:23:17Z</time>
      </trkpt>
      <trkpt lat="44.05105" lon="2.29858">
        <ele>518</ele>
        <time>2015-07-04T13:23:45Z</time>
      </trkpt>
      <trkpt lat="44.05124" lon="2.29816">
        <ele>520</ele>
        <time>2015-07-04T13:24:18Z</time>
      </trkpt>
      <trkpt lat="44.0512" lon="2.29778">
        <ele>523</ele>
        <time>2015-07-04T13:24:45Z</time>
      </trkpt>
      <trkpt lat="44.05106" lon="2.29742">
        <ele>525</ele>
        <time>2015-07-04T13:25:15Z</time>
      </trkpt>
      <trkpt lat="44.05088" lon="2.29696">
        <ele>526</ele>
        <time>2015-07-04T13:25:48Z</time>
      </trkpt>
      <trkpt lat="44.05067" lon="2.29658">
        <ele>529</ele>
        <time>2015-07-04T13:26:19Z</time>
      </trkpt>
      <trkpt lat="44.05046" lon="2.29618">
        <ele>531</ele>
        <time>2015-07-04T13:26:50Z</time>
      </trkpt>
      <trkpt lat="44.05034" lon="2.29574">
        <ele>534</ele>
        <time>2015-07-04T13:27:20Z</time>
      </trkpt>
      <trkpt lat="44.05033" lon="2.29569">
        <ele>534</ele>
        <time>2015-07-04T13:27:26Z</time>
      </trkpt>
      <trkpt lat="44.05032" lon="2.29558">
        <ele>534</ele>
        <time>2015-07-04T13:27:34Z</time>
      </trkpt>
      <trkpt lat="44.05028" lon="2.2955">
        <ele>535</ele>
        <time>2015-07-04T13:27:44Z</time>
      </trkpt>
      <trkpt lat="44.05024" lon="2.29549">
        <ele>535</ele>
        <time>2015-07-04T13:27:49Z</time>
      </trkpt>
      <trkpt lat="44.0502" lon="2.29552">
        <ele>536</ele>
        <time>2015-07-04T13:27:53Z</time>
      </trkpt>
      <trkpt lat="44.05013" lon="2.29566">
        <ele>537</ele>
        <time>2015-07-04T13:28:05Z</time>
      </trkpt>
      <trkpt lat="44.04985" lon="2.29558">
        <ele>540</ele>
        <time>2015-07-04T13:28:33Z</time>
      </trkpt>
      <trkpt lat="44.04967" lon="2.2956">
        <ele>542</ele>
        <time>2015-07-04T13:29:08Z</time>
      </trkpt>
      <trkpt lat="44.04964" lon="2.29557">
        <ele>542</ele>
        <time>2015-07-04T13:29:12Z</time>
      </trkpt>
      <trkpt lat="44.04962" lon="2.29546">
        <ele>542</ele>
        <time>2015-07-04T13:29:22Z</time>
      </trkpt>
      <trkpt lat="44.04962" lon="2.29535">
        <ele>542</ele>
        <time>2015-07-04T13:29:30Z</time>
      </trkpt>
      <trkpt lat="44.04974" lon="2.2952">
        <ele>543</ele>
        <time>2015-07-04T13:29:46Z</time>
      </trkpt>
      <trkpt lat="44.04994" lon="2.29504">
        <ele>544</ele>
        <time>2015-07-04T13:30:09Z</time>
      </trkpt>
      <trkpt lat="44.04994" lon="2.29499">
        <ele>544</ele>
        <time>2015-07-04T13:30:18Z</time>
      </trkpt>
      <trkpt lat="44.0499" lon="2.2949">
        <ele>544</ele>
        <time>2015-07-04T13:30:27Z</time>
      </trkpt>
      <trkpt lat="44.04968" lon="2.29458">
        <ele>543</ele>
        <time>2015-07-04T13:30:58Z</time>
      </trkpt>
      <trkpt lat="44.04946" lon="2.29418">
        <ele>539</ele>
        <time>2015-07-04T13:31:29Z</time>
      </trkpt>
      <trkpt lat="44.04922" lon="2.29394">
        <ele>538</ele>
        <time>2015-07-04T13:32:00Z</time>
      </trkpt>
      <trkpt lat="44.04896" lon="2.29368">
        <ele>536</ele>
        <time>2015-07-04T13:32:30Z</time>
      </trkpt>
      <trkpt lat="44.04869" lon="2.29341">
        <ele>536</ele>
        <time>2015-07-04T13:33:00Z</time>
      </trkpt>
      <trkpt lat="44.04839" lon="2.29316">
        <ele>533</ele>
        <time>2015-07-04T13:33:30Z</time>
      </trkpt>
      <trkpt lat="44.04809" lon="2.29293">
        <ele>532</ele>
        <time>2015-07-04T13:34:01Z</time>
      </trkpt>
      <trkpt lat="44.04782" lon="2.29277">
        <ele>528</ele>
        <time>2015-07-04T13:34:31Z</time>
      </trkpt>
      <trkpt lat="44.04764" lon="2.29239">
        <ele>525</ele>
        <time>2015-07-04T13:35:04Z</time>
      </trkpt>
      <trkpt lat="44.04754" lon="2.29197">
        <ele>523</ele>
        <time>2015-07-04T13:35:36Z</time>
      </trkpt>
      <trkpt lat="44.04751" lon="2.29181">
        <ele>521</ele>
        <time>2015-07-04T13:35:45Z</time>
      </trkpt>
      <trkpt lat="44.04745" lon="2.29172">
        <ele>519</ele>
        <time>2015-07-04T13:35:53Z</time>
      </trkpt>
      <trkpt lat="44.04733" lon="2.29151">
        <ele>516</ele>
        <time>2015-07-04T13:36:08Z</time>
      </trkpt>
      <trkpt lat="44.04732" lon="2.29141">
        <ele>514</ele>
        <time>2015-07-04T13:36:15Z</time>
      </trkpt>
      <trkpt lat="44.04709" lon="2.291">
        <ele>510</ele>
        <time>2015-07-04T13:36:47Z</time>
      </trkpt>
      <trkpt lat="44.04703" lon="2.29094">
        <ele>510</ele>
        <time>2015-07-04T13:36:53Z</time>
      </trkpt>
      <trkpt lat="44.04683" lon="2.29051">
        <ele>506</ele>
        <time>2015-07-04T13:37:24Z</time>
      </trkpt>
      <trkpt lat="44.04669" lon="2.2901">
        <ele>503</ele>
        <time>2015-07-04T13:37:54Z</time>
      </trkpt>
      <trkpt lat="44.04666" lon="2.29004">
        <ele>502</ele>
        <time>2015-07-04T13:37:59Z</time>
      </trkpt>
      <trkpt lat="44.04653" lon="2.28957">
        <ele>500</ele>
        <time>2015-07-04T13:38:30Z</time>
      </trkpt>
      <trkpt lat="44.04651" lon="2.28954">
        <ele>500</ele>
        <time>2015-07-04T13:38:33Z</time>
      </trkpt>
      <trkpt lat="44.0464" lon="2.28912">
        <ele>496</ele>
        <time>2015-07-04T13:39:07Z</time>
      </trkpt>
      <trkpt lat="44.04638" lon="2.28898">
        <ele>494</ele>
        <time>2015-07-04T13:39:18Z</time>
      </trkpt>
      <trkpt lat="44.04636" lon="2.28895">
        <ele>494</ele>
        <time>2015-07-04T13:39:22Z</time>
      </trkpt>
      <trkpt lat="44.04599" lon="2.28892">
        <ele>492</ele>
        <time>2015-07-04T13:39:53Z</time>
      </trkpt>
      <trkpt lat="44.04579" lon="2.289">
        <ele>491</ele>
        <time>2015-07-04T13:40:13Z</time>
      </trkpt>
      <trkpt lat="44.04543" lon="2.28896">
        <ele>488</ele>
        <time>2015-07-04T13:40:45Z</time>
      </trkpt>
      <trkpt lat="44.04522" lon="2.28889">
        <ele>487</ele>
        <time>2015-07-04T13:41:16Z</time>
      </trkpt>
      <trkpt lat="44.04523" lon="2.28884">
        <ele>487</ele>
        <time>2015-07-04T13:41:21Z</time>
      </trkpt>
      <trkpt lat="44.04528" lon="2.28844">
        <ele>486</ele>
        <time>2015-07-04T13:41:48Z</time>
      </trkpt>
      <trkpt lat="44.04525" lon="2.28841">
        <ele>486</ele>
        <time>2015-07-04T13:41:51Z</time>
      </trkpt>
      <trkpt lat="44.04507" lon="2.28836">
        <ele>485</ele>
        <time>2015-07-04T13:42:07Z</time>
      </trkpt>
      <trkpt lat="44.04475" lon="2.28852">
        <ele>480</ele>
        <time>2015-07-04T13:42:39Z</time>
      </trkpt>
      <trkpt lat="44.04446" lon="2.28887">
        <ele>477</ele>
        <time>2015-07-04T13:43:12Z</time>
      </trkpt>
      <trkpt lat="44.04429" lon="2.28915">
        <ele>474</ele>
        <time>2015-07-04T13:43:42Z</time>
      </trkpt>
      <trkpt lat="44.04397" lon="2.28939">
        <ele>471</ele>
        <time>2015-07-04T13:44:14Z</time>
      </trkpt>
      <trkpt lat="44.04368" lon="2.28957">
        <ele>471</ele>
        <time>2015-07-04T13:44:44Z</time>
      </trkpt>
      <trkpt lat="44.04334" lon="2.28958">
        <ele>470</ele>
        <time>2015-07-04T13:45:15Z</time>
      </trkpt>
      <trkpt lat="44.04304" lon="2.28977">
        <ele>469</ele>
        <time>2015-07-04T13:45:46Z</time>
      </trkpt>
      <trkpt lat="44.04302" lon="2.2898">
        <ele>469</ele>
        <time>2015-07-04T13:45:49Z</time>
      </trkpt>
      <trkpt lat="44.04298" lon="2.28982">
        <ele>469</ele>
        <time>2015-07-04T13:45:52Z</time>
      </trkpt>
      <trkpt lat="44.04258" lon="2.28995">
        <ele>471</ele>
        <time>2015-07-04T13:46:26Z</time>
      </trkpt>
      <trkpt lat="44.04227" lon="2.29013">
        <ele>471</ele>
        <time>2015-07-04T13:46:57Z</time>
      </trkpt>
      <trkpt lat="44.04221" lon="2.29012">
        <ele>471</ele>
        <time>2015-07-04T13:47:18Z</time>
      </trkpt>
      <trkpt lat="44.04192" lon="2.29033">
        <ele>471</ele>
        <time>2015-07-04T13:47:49Z</time>
      </trkpt>
      <trkpt lat="44.04165" lon="2.29054">
        <ele>471</ele>
        <time>2015-07-04T13:48:19Z</time>
      </trkpt>
      <trkpt lat="44.04161" lon="2.29056">
        <ele>471</ele>
        <time>2015-07-04T13:48:22Z</time>
      </trkpt>
      <trkpt lat="44.04132" lon="2.29081">
        <ele>470</ele>
        <time>2015-07-04T13:48:54Z</time>
      </trkpt>
      <trkpt lat="44.04106" lon="2.29104">
        <ele>471</ele>
        <time>2015-07-04T13:49:24Z</time>
      </trkpt>
      <trkpt lat="44.04077" lon="2.29126">
        <ele>471</ele>
        <time>2015-07-04T13:49:54Z</time>
      </trkpt>
      <trkpt lat="44.04075" lon="2.29129">
        <ele>470</ele>
        <time>2015-07-04T13:49:58Z</time>
      </trkpt>
      <trkpt lat="44.0407" lon="2.29126">
        <ele>470</ele>
        <time>2015-07-04T13:50:10Z</time>
      </trkpt>
      <trkpt lat="44.04061" lon="2.29113">
        <ele>469</ele>
        <time>2015-07-04T13:50:26Z</time>
      </trkpt>
      <trkpt lat="44.04034" lon="2.29082">
        <ele>466</ele>
        <time>2015-07-04T13:50:56Z</time>
      </trkpt>
      <trkpt lat="44.04009" lon="2.29048">
        <ele>464</ele>
        <time>2015-07-04T13:51:26Z</time>
      </trkpt>
      <trkpt lat="44.03985" lon="2.29012">
        <ele>461</ele>
        <time>2015-07-04T13:51:57Z</time>
      </trkpt>
      <trkpt lat="44.03955" lon="2.28981">
        <ele>458</ele>
        <time>2015-07-04T13:52:29Z</time>
      </trkpt>
      <trkpt lat="44.0393" lon="2.2894">
        <ele>453</ele>
        <time>2015-07-04T13:53:01Z</time>
      </trkpt>
      <trkpt lat="44.03908" lon="2.28903">
        <ele>448</ele>
        <time>2015-07-04T13:53:32Z</time>
      </trkpt>
      <trkpt lat="44.03904" lon="2.28892">
        <ele>447</ele>
        <time>2015-07-04T13:53:42Z</time>
      </trkpt>
      <trkpt lat="44.03898" lon="2.2889">
        <ele>446</ele>
        <time>2015-07-04T13:53:48Z</time>
      </trkpt>
      <trkpt lat="44.03892" lon="2.28892">
        <ele>446</ele>
        <time>2015-07-04T13:53:53Z</time>
      </trkpt>
      <trkpt lat="44.03889" lon="2.28895">
        <ele>445</ele>
        <time>2015-07-04T13:53:56Z</time>
      </trkpt>
      <trkpt lat="44.03886" lon="2.28913">
        <ele>444</ele>
        <time>2015-07-04T13:54:09Z</time>
      </trkpt>
      <trkpt lat="44.03892" lon="2.28959">
        <ele>438</ele>
        <time>2015-07-04T13:54:40Z</time>
      </trkpt>
      <trkpt lat="44.03896" lon="2.28999">
        <ele>431</ele>
        <time>2015-07-04T13:55:10Z</time>
      </trkpt>
      <trkpt lat="44.03906" lon="2.29051">
        <ele>426</ele>
        <time>2015-07-04T13:55:40Z</time>
      </trkpt>
      <trkpt lat="44.03916" lon="2.29101">
        <ele>423</ele>
        <time>2015-07-04T13:56:12Z</time>
      </trkpt>
      <trkpt lat="44.03919" lon="2.29144">
        <ele>419</ele>
        <time>2015-07-04T13:56:43Z</time>
      </trkpt>
      <trkpt lat="44.03932" lon="2.29183">
        <ele>417</ele>
        <time>2015-07-04T13:57:14Z</time>
      </trkpt>
      <trkpt lat="44.03932" lon="2.29188">
        <ele>417</ele>
        <time>2015-07-04T13:57:18Z</time>
      </trkpt>
      <trkpt lat="44.03939" lon="2.29234">
        <ele>415</ele>
        <time>2015-07-04T13:57:49Z</time>
      </trkpt>
      <trkpt lat="44.03939" lon="2.29248">
        <ele>414</ele>
        <time>2015-07-04T13:57:58Z</time>
      </trkpt>
      <trkpt lat="44.03941" lon="2.29256">
        <ele>417</ele>
        <time>2015-07-04T13:58:47Z</time>
      </trkpt>
      <trkpt lat="44.03936" lon="2.29259">
        <ele>418</ele>
        <time>2015-07-04T13:59:03Z</time>
      </trkpt>
      <trkpt lat="44.03929" lon="2.29258">
        <ele>423</ele>
        <time>2015-07-04T13:59:41Z</time>
      </trkpt>
      <trkpt lat="44.039" lon="2.29225">
        <ele>422</ele>
        <time>2015-07-04T14:00:15Z</time>
      </trkpt>
      <trkpt lat="44.03878" lon="2.29181">
        <ele>414</ele>
        <time>2015-07-04T14:00:49Z</time>
      </trkpt>
      <trkpt lat="44.03851" lon="2.29149">
        <ele>405</ele>
        <time>2015-07-04T14:01:23Z</time>
      </trkpt>
      <trkpt lat="44.0383" lon="2.29114">
        <ele>400</ele>
        <time>2015-07-04T14:01:55Z</time>
      </trkpt>
      <trkpt lat="44.03807" lon="2.2908">
        <ele>393</ele>
        <time>2015-07-04T14:02:28Z</time>
      </trkpt>
      <trkpt lat="44.03789" lon="2.29047">
        <ele>387</ele>
        <time>2015-07-04T14:03:00Z</time>
      </trkpt>
      <trkpt lat="44.03789" lon="2.29043">
        <ele>386</ele>
        <time>2015-07-04T14:03:04Z</time>
      </trkpt>
      <trkpt lat="44.03773" lon="2.2903">
        <ele>384</ele>
        <time>2015-07-04T14:03:19Z</time>
      </trkpt>
      <trkpt lat="44.03744" lon="2.2901">
        <ele>380</ele>
        <time>2015-07-04T14:03:50Z</time>
      </trkpt>
      <trkpt lat="44.03736" lon="2.29005">
        <ele>378</ele>
        <time>2015-07-04T14:03:59Z</time>
      </trkpt>
      <trkpt lat="44.03728" lon="2.29004">
        <ele>377</ele>
        <time>2015-07-04T14:04:08Z</time>
      </trkpt>
      <trkpt lat="44.03693" lon="2.28988">
        <ele>371</ele>
        <time>2015-07-04T14:04:40Z</time>
      </trkpt>
      <trkpt lat="44.03665" lon="2.28976">
        <ele>368</ele>
        <time>2015-07-04T14:05:10Z</time>
      </trkpt>
      <trkpt lat="44.03641" lon="2.28959">
        <ele>366</ele>
        <time>2015-07-04T14:05:40Z</time>
      </trkpt>
      <trkpt lat="44.03607" lon="2.28939">
        <ele>360</ele>
        <time>2015-07-04T14:06:12Z</time>
      </trkpt>
      <trkpt lat="44.03578" lon="2.28937">
        <ele>356</ele>
        <time>2015-07-04T14:06:42Z</time>
      </trkpt>
      <trkpt lat="44.03544" lon="2.28937">
        <ele>352</ele>
        <time>2015-07-04T14:07:14Z</time>
      </trkpt>
      <trkpt lat="44.03509" lon="2.28951">
        <ele>349</ele>
        <time>2015-07-04T14:07:47Z</time>
      </trkpt>
      <trkpt lat="44.03497" lon="2.28963">
        <ele>346</ele>
        <time>2015-07-04T14:08:02Z</time>
      </trkpt>
      <trkpt lat="44.03493" lon="2.28962">
        <ele>345</ele>
        <time>2015-07-04T14:08:06Z</time>
      </trkpt>
      <trkpt lat="44.03491" lon="2.28959">
        <ele>345</ele>
        <time>2015-07-04T14:08:09Z</time>
      </trkpt>
      <trkpt lat="44.03473" lon="2.28929">
        <ele>337</ele>
        <time>2015-07-04T14:08:40Z</time>
      </trkpt>
      <trkpt lat="44.0345" lon="2.28896">
        <ele>332</ele>
        <time>2015-07-04T14:09:11Z</time>
      </trkpt>
      <trkpt lat="44.03432" lon="2.28863">
        <ele>326</ele>
        <time>2015-07-04T14:09:41Z</time>
      </trkpt>
      <trkpt lat="44.03421" lon="2.28829">
        <ele>321</ele>
        <time>2015-07-04T14:10:09Z</time>
      </trkpt>
      <trkpt lat="44.03415" lon="2.2883">
        <ele>318</ele>
        <time>2015-07-04T14:10:21Z</time>
      </trkpt>
      <trkpt lat="44.03411" lon="2.28828">
        <ele>316</ele>
        <time>2015-07-04T14:10:40Z</time>
      </trkpt>
      <trkpt lat="44.03396" lon="2.28808">
        <ele>312</ele>
        <time>2015-07-04T14:11:07Z</time>
      </trkpt>
      <trkpt lat="44.03386" lon="2.28808">
        <ele>314</ele>
        <time>2015-07-04T14:13:38Z</time>
      </trkpt>
      <trkpt lat="44.03383" lon="2.28804">
        <ele>309</ele>
        <time>2015-07-04T14:16:01Z</time>
      </trkpt>
      <trkpt lat="44.03385" lon="2.2881">
        <ele>308</ele>
        <time>2015-07-04T14:16:30Z</time>
      </trkpt>
      <trkpt lat="44.03392" lon="2.28815">
        <ele>308</ele>
        <time>2015-07-04T14:16:38Z</time>
      </trkpt>
      <trkpt lat="44.03391" lon="2.2881">
        <ele>308</ele>
        <time>2015-07-04T14:16:55Z</time>
      </trkpt>
      <trkpt lat="44.03382" lon="2.28805">
        <ele>308</ele>
        <time>2015-07-04T14:17:11Z</time>
      </trkpt>
      <trkpt lat="44.03382" lon="2.28807">
        <ele>307</ele>
        <time>2015-07-04T14:19:01Z</time>
      </trkpt>
      <trkpt lat="44.03387" lon="2.2881">
        <ele>307</ele>
        <time>2015-07-04T14:19:20Z</time>
      </trkpt>
      <trkpt lat="44.03391" lon="2.28808">
        <ele>307</ele>
        <time>2015-07-04T14:23:34Z</time>
      </trkpt>
      <trkpt lat="44.03388" lon="2.28803">
        <ele>307</ele>
        <time>2015-07-04T14:24:52Z</time>
      </trkpt>
      <trkpt lat="44.03382" lon="2.28807">
        <ele>307</ele>
        <time>2015-07-04T14:25:48Z</time>
      </trkpt>
      <trkpt lat="44.0338" lon="2.28798">
        <ele>306</ele>
        <time>2015-07-04T14:28:56Z</time>
      </trkpt>
      <trkpt lat="44.03381" lon="2.28804">
        <ele>306</ele>
        <time>2015-07-04T14:29:55Z</time>
      </trkpt>
      <trkpt lat="44.03385" lon="2.28809">
        <ele>305</ele>
        <time>2015-07-04T14:30:32Z</time>
      </trkpt>
      <trkpt lat="44.0339" lon="2.28813">
        <ele>305</ele>
        <time>2015-07-04T14:30:38Z</time>
      </trkpt>
      <trkpt lat="44.034" lon="2.28832">
        <ele>301</ele>
        <time>2015-07-04T14:30:58Z</time>
      </trkpt>
      <trkpt lat="44.03402" lon="2.28861">
        <ele>299</ele>
        <time>2015-07-04T14:31:20Z</time>
      </trkpt>
      <trkpt lat="44.03413" lon="2.28892">
        <ele>299</ele>
        <time>2015-07-04T14:31:43Z</time>
      </trkpt>
      <trkpt lat="44.03424" lon="2.28939">
        <ele>297</ele>
        <time>2015-07-04T14:32:06Z</time>
      </trkpt>
      <trkpt lat="44.03425" lon="2.2895">
        <ele>298</ele>
        <time>2015-07-04T14:32:12Z</time>
      </trkpt>
      <trkpt lat="44.03429" lon="2.28956">
        <ele>298</ele>
        <time>2015-07-04T14:32:19Z</time>
      </trkpt>
      <trkpt lat="44.03432" lon="2.28962">
        <ele>299</ele>
        <time>2015-07-04T14:32:26Z</time>
      </trkpt>
      <trkpt lat="44.03436" lon="2.28964">
        <ele>301</ele>
        <time>2015-07-04T14:32:30Z</time>
      </trkpt>
      <trkpt lat="44.03446" lon="2.28976">
        <ele>303</ele>
        <time>2015-07-04T14:32:44Z</time>
      </trkpt>
      <trkpt lat="44.03451" lon="2.2899">
        <ele>306</ele>
        <time>2015-07-04T14:32:53Z</time>
      </trkpt>
      <trkpt lat="44.03476" lon="2.29005">
        <ele>309</ele>
        <time>2015-07-04T14:33:25Z</time>
      </trkpt>
      <trkpt lat="44.03497" lon="2.29037">
        <ele>312</ele>
        <time>2015-07-04T14:33:57Z</time>
      </trkpt>
      <trkpt lat="44.03506" lon="2.29092">
        <ele>309</ele>
        <time>2015-07-04T14:34:31Z</time>
      </trkpt>
      <trkpt lat="44.03504" lon="2.2913">
        <ele>310</ele>
        <time>2015-07-04T14:35:04Z</time>
      </trkpt>
      <trkpt lat="44.03498" lon="2.29167">
        <ele>312</ele>
        <time>2015-07-04T14:35:27Z</time>
      </trkpt>
      <trkpt lat="44.03486" lon="2.29204">
        <ele>314</ele>
        <time>2015-07-04T14:35:57Z</time>
      </trkpt>
      <trkpt lat="44.0347" lon="2.29229">
        <ele>316</ele>
        <time>2015-07-04T14:36:19Z</time>
      </trkpt>
      <trkpt lat="44.03464" lon="2.29233">
        <ele>316</ele>
        <time>2015-07-04T14:36:25Z</time>
      </trkpt>
      <trkpt lat="44.03448" lon="2.29232">
        <ele>316</ele>
        <time>2015-07-04T14:36:46Z</time>
      </trkpt>
      <trkpt lat="44.03441" lon="2.29234">
        <ele>313</ele>
        <time>2015-07-04T14:36:55Z</time>
      </trkpt>
      <trkpt lat="44.03413" lon="2.29245">
        <ele>312</ele>
        <time>2015-07-04T14:37:17Z</time>
      </trkpt>
      <trkpt lat="44.03407" lon="2.29246">
        <ele>313</ele>
        <time>2015-07-04T14:37:26Z</time>
      </trkpt>
      <trkpt lat="44.034" lon="2.29252">
        <ele>314</ele>
        <time>2015-07-04T14:37:31Z</time>
      </trkpt>
      <trkpt lat="44.03392" lon="2.29254">
        <ele>314</ele>
        <time>2015-07-04T14:37:36Z</time>
      </trkpt>
      <trkpt lat="44.03356" lon="2.29266">
        <ele>315</ele>
        <time>2015-07-04T14:38:15Z</time>
      </trkpt>
      <trkpt lat="44.03336" lon="2.29274">
        <ele>316</ele>
        <time>2015-07-04T14:38:33Z</time>
      </trkpt>
      <trkpt lat="44.03306" lon="2.29296">
        <ele>318</ele>
        <time>2015-07-04T14:39:04Z</time>
      </trkpt>
      <trkpt lat="44.03272" lon="2.29309">
        <ele>317</ele>
        <time>2015-07-04T14:39:37Z</time>
      </trkpt>
      <trkpt lat="44.0324" lon="2.29315">
        <ele>317</ele>
        <time>2015-07-04T14:40:09Z</time>
      </trkpt>
      <trkpt lat="44.03202" lon="2.29308">
        <ele>314</ele>
        <time>2015-07-04T14:40:40Z</time>
      </trkpt>
      <trkpt lat="44.03185" lon="2.29308">
        <ele>316</ele>
        <time>2015-07-04T14:40:53Z</time>
      </trkpt>
      <trkpt lat="44.03171" lon="2.29319">
        <ele>318</ele>
        <time>2015-07-04T14:41:05Z</time>
      </trkpt>
      <trkpt lat="44.03167" lon="2.2932">
        <ele>318</ele>
        <time>2015-07-04T14:41:08Z</time>
      </trkpt>
      <trkpt lat="44.03138" lon="2.29338">
        <ele>318</ele>
        <time>2015-07-04T14:41:39Z</time>
      </trkpt>
      <trkpt lat="44.03112" lon="2.29356">
        <ele>317</ele>
        <time>2015-07-04T14:42:02Z</time>
      </trkpt>
      <trkpt lat="44.03107" lon="2.29397">
        <ele>312</ele>
        <time>2015-07-04T14:42:30Z</time>
      </trkpt>
      <trkpt lat="44.03108" lon="2.29407">
        <ele>312</ele>
        <time>2015-07-04T14:42:35Z</time>
      </trkpt>
      <trkpt lat="44.03111" lon="2.29422">
        <ele>310</ele>
        <time>2015-07-04T14:42:45Z</time>
      </trkpt>
      <trkpt lat="44.03115" lon="2.29456">
        <ele>309</ele>
        <time>2015-07-04T14:43:02Z</time>
      </trkpt>
      <trkpt lat="44.03136" lon="2.29494">
        <ele>310</ele>
        <time>2015-07-04T14:43:29Z</time>
      </trkpt>
      <trkpt lat="44.03145" lon="2.29519">
        <ele>311</ele>
        <time>2015-07-04T14:44:01Z</time>
      </trkpt>
      <trkpt lat="44.03152" lon="2.2953">
        <ele>311</ele>
        <time>2015-07-04T14:44:07Z</time>
      </trkpt>
      <trkpt lat="44.03155" lon="2.29533">
        <ele>312</ele>
        <time>2015-07-04T14:44:08Z</time>
      </trkpt>
      <trkpt lat="44.03161" lon="2.29534">
        <ele>313</ele>
        <time>2015-07-04T14:44:12Z</time>
      </trkpt>
      <trkpt lat="44.03174" lon="2.29554">
        <ele>312</ele>
        <time>2015-07-04T14:44:34Z</time>
      </trkpt>
      <trkpt lat="44.03178" lon="2.2956">
        <ele>311</ele>
        <time>2015-07-04T14:44:40Z</time>
      </trkpt>
      <trkpt lat="44.03184" lon="2.29562">
        <ele>310</ele>
        <time>2015-07-04T14:44:45Z</time>
      </trkpt>
      <trkpt lat="44.0319" lon="2.29569">
        <ele>310</ele>
        <time>2015-07-04T14:44:52Z</time>
      </trkpt>
      <trkpt lat="44.03212" lon="2.29611">
        <ele>312</ele>
        <time>2015-07-04T14:45:24Z</time>
      </trkpt>
      <trkpt lat="44.03224" lon="2.29667">
        <ele>313</ele>
        <time>2015-07-04T14:45:57Z</time>
      </trkpt>
      <trkpt lat="44.03231" lon="2.29689">
        <ele>316</ele>
        <time>2015-07-04T14:46:16Z</time>
      </trkpt>
      <trkpt lat="44.03237" lon="2.29703">
        <ele>317</ele>
        <time>2015-07-04T14:46:26Z</time>
      </trkpt>
      <trkpt lat="44.03241" lon="2.29714">
        <ele>317</ele>
        <time>2015-07-04T14:46:34Z</time>
      </trkpt>
      <trkpt lat="44.03244" lon="2.29717">
        <ele>317</ele>
        <time>2015-07-04T14:46:38Z</time>
      </trkpt>
      <trkpt lat="44.03247" lon="2.2972">
        <ele>317</ele>
        <time>2015-07-04T14:46:42Z</time>
      </trkpt>
      <trkpt lat="44.03248" lon="2.29726">
        <ele>317</ele>
        <time>2015-07-04T14:46:48Z</time>
      </trkpt>
      <trkpt lat="44.03246" lon="2.29739">
        <ele>317</ele>
        <time>2015-07-04T14:47:02Z</time>
      </trkpt>
      <trkpt lat="44.03243" lon="2.29761">
        <ele>317</ele>
        <time>2015-07-04T14:47:18Z</time>
      </trkpt>
      <trkpt lat="44.03252" lon="2.29795">
        <ele>319</ele>
        <time>2015-07-04T14:47:38Z</time>
      </trkpt>
      <trkpt lat="44.03254" lon="2.29805">
        <ele>319</ele>
        <time>2015-07-04T14:48:19Z</time>
      </trkpt>
      <trkpt lat="44.03253" lon="2.29812">
        <ele>320</ele>
        <time>2015-07-04T14:48:32Z</time>
      </trkpt>
      <trkpt lat="44.03238" lon="2.29852">
        <ele>320</ele>
        <time>2015-07-04T14:49:03Z</time>
      </trkpt>
      <trkpt lat="44.03229" lon="2.29899">
        <ele>321</ele>
        <time>2015-07-04T14:49:35Z</time>
      </trkpt>
      <trkpt lat="44.03221" lon="2.29942">
        <ele>319</ele>
        <time>2015-07-04T14:50:05Z</time>
      </trkpt>
      <trkpt lat="44.03216" lon="2.29974">
        <ele>318</ele>
        <time>2015-07-04T14:50:27Z</time>
      </trkpt>
      <trkpt lat="44.03217" lon="2.3001">
        <ele>318</ele>
        <time>2015-07-04T14:50:43Z</time>
      </trkpt>
      <trkpt lat="44.0322" lon="2.30017">
        <ele>317</ele>
        <time>2015-07-04T14:50:47Z</time>
      </trkpt>
      <trkpt lat="44.03243" lon="2.30052">
        <ele>315</ele>
        <time>2015-07-04T14:51:19Z</time>
      </trkpt>
      <trkpt lat="44.03248" lon="2.30072">
        <ele>312</ele>
        <time>2015-07-04T14:51:36Z</time>
      </trkpt>
      <trkpt lat="44.03256" lon="2.30081">
        <ele>312</ele>
        <time>2015-07-04T14:51:50Z</time>
      </trkpt>
      <trkpt lat="44.03259" lon="2.3009">
        <ele>313</ele>
        <time>2015-07-04T14:51:55Z</time>
      </trkpt>
      <trkpt lat="44.03275" lon="2.30117">
        <ele>315</ele>
        <time>2015-07-04T14:52:18Z</time>
      </trkpt>
      <trkpt lat="44.03276" lon="2.30124">
        <ele>316</ele>
        <time>2015-07-04T14:52:26Z</time>
      </trkpt>
      <trkpt lat="44.03286" lon="2.30149">
        <ele>316</ele>
        <time>2015-07-04T14:52:40Z</time>
      </trkpt>
      <trkpt lat="44.03287" lon="2.30166">
        <ele>314</ele>
        <time>2015-07-04T14:52:50Z</time>
      </trkpt>
      <trkpt lat="44.03288" lon="2.30171">
        <ele>314</ele>
        <time>2015-07-04T14:52:54Z</time>
      </trkpt>
      <trkpt lat="44.03292" lon="2.30191">
        <ele>312</ele>
        <time>2015-07-04T14:53:39Z</time>
      </trkpt>
      <trkpt lat="44.03289" lon="2.30204">
        <ele>313</ele>
        <time>2015-07-04T14:54:11Z</time>
      </trkpt>
      <trkpt lat="44.03259" lon="2.30237">
        <ele>313</ele>
        <time>2015-07-04T14:54:46Z</time>
      </trkpt>
      <trkpt lat="44.03246" lon="2.30253">
        <ele>313</ele>
        <time>2015-07-04T14:55:00Z</time>
      </trkpt>
      <trkpt lat="44.03242" lon="2.30247">
        <ele>314</ele>
        <time>2015-07-04T14:55:10Z</time>
      </trkpt>
      <trkpt lat="44.03247" lon="2.30242">
        <ele>315</ele>
        <time>2015-07-04T14:55:17Z</time>
      </trkpt>
      <trkpt lat="44.03246" lon="2.30237">
        <ele>316</ele>
        <time>2015-07-04T14:55:22Z</time>
      </trkpt>
      <trkpt lat="44.03248" lon="2.30228">
        <ele>316</ele>
        <time>2015-07-04T14:55:30Z</time>
      </trkpt>
      <trkpt lat="44.03237" lon="2.30203">
        <ele>315</ele>
        <time>2015-07-04T14:55:43Z</time>
      </trkpt>
      <trkpt lat="44.03235" lon="2.30202">
        <ele>314</ele>
        <time>2015-07-04T14:55:45Z</time>
      </trkpt>
      <trkpt lat="44.03208" lon="2.30199">
        <ele>313</ele>
        <time>2015-07-04T14:56:03Z</time>
      </trkpt>
    </trkseg>
  </trk>
</gpx>